createdAt,value
2019-03-15T00:00:33.514Z,8.73
2019-03-15T00:01:33.025Z,8.91
2019-03-15T00:02:33.410Z,8.85
2019-03-15T00:03:33.306Z,8.84
2019-03-15T00:04:33.339Z,8.76
2019-03-15T00:05:34.034Z,8.85
2019-03-15T00:06:33.354Z,8.71
2019-03-15T00:07:33.377Z,8.87
2019-03-15T00:08:33.864Z,8.81
2019-03-15T00:09:33.410Z,8.91
2019-03-15T00:10:33.425Z,8.74
2019-03-15T00:11:34.254Z,8.91
2019-03-15T00:12:33.468Z,8.85
2019-03-15T00:13:33.480Z,8.78
2019-03-15T00:14:33.514Z,8.85
2019-03-15T00:15:33.520Z,8.87
2019-03-15T00:16:33.282Z,8.74
2019-03-15T00:17:33.557Z,8.82
2019-03-15T00:18:33.353Z,8.82
2019-03-15T00:19:33.856Z,8.88
2019-03-15T00:20:33.394Z,8.82
2019-03-15T00:21:33.627Z,8.71
2019-03-15T00:22:33.642Z,8.76
2019-03-15T00:23:33.658Z,8.82
2019-03-15T00:24:33.677Z,8.79
2019-03-15T00:25:33.958Z,8.74
2019-03-15T00:26:33.743Z,8.84
2019-03-15T00:27:33.732Z,8.74
2019-03-15T00:28:33.488Z,8.81
2019-03-15T00:29:34.040Z,8.74
2019-03-15T00:30:33.785Z,8.84
2019-03-15T00:31:34.078Z,8.84
2019-03-15T00:32:33.819Z,8.73
2019-03-15T00:33:33.837Z,8.78
2019-03-15T00:34:34.127Z,8.85
2019-03-15T00:35:33.885Z,8.74
2019-03-15T00:36:33.907Z,8.78
2019-03-15T00:37:34.172Z,8.73
2019-03-15T00:38:33.928Z,8.84
2019-03-15T00:39:34.202Z,8.76
2019-03-15T00:40:33.960Z,8.79
2019-03-15T00:41:33.987Z,8.74
2019-03-15T00:42:34.532Z,8.81
2019-03-15T00:43:33.749Z,8.78
2019-03-15T00:44:34.295Z,8.76
2019-03-15T00:45:34.073Z,8.73
2019-03-15T00:46:34.081Z,8.76
2019-03-15T00:47:33.819Z,8.78
2019-03-15T00:48:34.108Z,8.79
2019-03-15T00:49:34.121Z,8.71
2019-03-15T00:50:33.909Z,8.78
2019-03-15T00:51:34.156Z,8.73
2019-03-15T00:52:34.173Z,8.76
2019-03-15T00:53:34.191Z,8.78
2019-03-15T00:54:34.253Z,8.81
2019-03-15T00:55:34.739Z,8.78
2019-03-15T00:56:34.244Z,8.82
2019-03-15T00:57:34.082Z,8.78
2019-03-15T00:58:34.281Z,8.81
2019-03-15T00:59:34.561Z,8.71
2019-03-15T01:00:34.314Z,8.76
2019-03-15T01:01:34.336Z,8.74
2019-03-15T01:02:34.346Z,8.76
2019-03-15T01:03:34.628Z,8.76
2019-03-15T01:04:34.385Z,8.67
2019-03-15T01:05:34.665Z,8.73
2019-03-15T01:06:34.420Z,8.71
2019-03-15T01:07:34.438Z,8.74
2019-03-15T01:08:34.192Z,8.73
2019-03-15T01:09:34.470Z,8.73
2019-03-15T01:10:34.229Z,8.7
2019-03-15T01:11:34.333Z,8.78
2019-03-15T01:12:34.530Z,8.73
2019-03-15T01:13:34.549Z,8.69
2019-03-15T01:14:34.561Z,8.74
2019-03-15T01:15:34.319Z,8.66
2019-03-15T01:16:34.756Z,8.67
2019-03-15T01:17:34.363Z,8.74
2019-03-15T01:18:34.646Z,8.71
2019-03-15T01:19:34.646Z,8.71
2019-03-15T01:20:34.671Z,8.67
2019-03-15T01:21:34.703Z,8.78
2019-03-15T01:22:34.717Z,8.79
2019-03-15T01:23:34.740Z,8.64
2019-03-15T01:24:34.741Z,8.7
2019-03-15T01:25:35.022Z,8.71
2019-03-15T01:26:34.512Z,8.7
2019-03-15T01:27:35.257Z,8.74
2019-03-15T01:28:34.816Z,8.66
2019-03-15T01:29:35.089Z,8.66
2019-03-15T01:30:34.849Z,8.71
2019-03-15T01:31:34.626Z,8.76
2019-03-15T01:32:35.017Z,8.69
2019-03-15T01:33:34.664Z,8.7
2019-03-15T01:34:34.917Z,8.71
2019-03-15T01:35:38.151Z,8.69
2019-03-15T01:36:35.220Z,8.7
2019-03-15T01:37:34.706Z,8.66
2019-03-15T01:38:34.727Z,8.69
2019-03-15T01:39:35.485Z,8.71
2019-03-15T01:40:35.073Z,8.66
2019-03-15T01:41:35.301Z,8.69
2019-03-15T01:42:35.060Z,8.66
2019-03-15T01:43:35.337Z,8.78
2019-03-15T01:44:35.091Z,8.67
2019-03-15T01:45:35.375Z,8.64
2019-03-15T01:46:36.141Z,8.67
2019-03-15T01:47:35.145Z,8.69
2019-03-15T01:48:35.164Z,8.7
2019-03-15T01:49:35.781Z,8.63
2019-03-15T01:50:35.207Z,8.66
2019-03-15T01:51:35.218Z,8.66
2019-03-15T01:52:35.735Z,8.71
2019-03-15T01:53:35.253Z,8.66
2019-03-15T01:54:35.542Z,8.63
2019-03-15T01:55:35.292Z,8.67
2019-03-15T01:56:35.565Z,8.66
2019-03-15T01:57:35.062Z,8.66
2019-03-15T01:58:35.345Z,8.69
2019-03-15T01:59:35.359Z,8.69
2019-03-15T02:00:35.638Z,8.64
2019-03-15T02:01:35.636Z,8.69
2019-03-15T02:02:35.147Z,8.66
2019-03-15T02:03:35.430Z,8.69
2019-03-15T02:04:36.301Z,8.69
2019-03-15T02:05:35.739Z,8.71
2019-03-15T02:06:35.218Z,8.69
2019-03-15T02:07:36.687Z,8.74
2019-03-15T02:08:35.261Z,8.64
2019-03-15T02:09:35.535Z,8.64
2019-03-15T02:10:35.664Z,8.61
2019-03-15T02:11:35.313Z,8.66
2019-03-15T02:12:35.857Z,8.66
2019-03-15T02:13:35.344Z,8.63
2019-03-15T02:14:35.622Z,8.63
2019-03-15T02:15:35.378Z,8.64
2019-03-15T02:16:36.800Z,8.64
2019-03-15T02:17:35.937Z,8.58
2019-03-15T02:18:35.697Z,8.63
2019-03-15T02:19:35.520Z,8.7
2019-03-15T02:20:35.463Z,8.66
2019-03-15T02:21:35.754Z,8.6
2019-03-15T02:22:36.128Z,8.6
2019-03-15T02:23:35.516Z,8.6
2019-03-15T02:24:35.798Z,8.67
2019-03-15T02:25:35.812Z,8.64
2019-03-15T02:26:36.106Z,8.61
2019-03-15T02:27:35.586Z,8.64
2019-03-15T02:28:35.608Z,8.64
2019-03-15T02:29:35.631Z,8.61
2019-03-15T02:30:35.659Z,8.66
2019-03-15T02:31:36.209Z,8.63
2019-03-15T02:32:35.952Z,8.61
2019-03-15T02:33:37.757Z,8.64
2019-03-15T02:34:35.976Z,8.61
2019-03-15T02:35:36.254Z,8.63
2019-03-15T02:36:35.769Z,8.74
2019-03-15T02:37:36.330Z,8.67
2019-03-15T02:38:36.366Z,8.61
2019-03-15T02:39:35.804Z,8.56
2019-03-15T02:40:36.084Z,8.55
2019-03-15T02:41:36.482Z,8.61
2019-03-15T02:42:36.392Z,8.56
2019-03-15T02:43:36.408Z,8.66
2019-03-15T02:44:35.918Z,8.6
2019-03-15T02:45:37.667Z,8.55
2019-03-15T02:46:36.448Z,8.61
2019-03-15T02:47:36.208Z,8.61
2019-03-15T02:48:35.971Z,8.6
2019-03-15T02:49:37.372Z,8.63
2019-03-15T02:50:36.266Z,8.6
2019-03-15T02:51:36.277Z,8.64
2019-03-15T02:52:36.557Z,8.63
2019-03-15T02:53:37.366Z,8.55
2019-03-15T02:54:36.331Z,8.58
2019-03-15T02:55:36.346Z,8.56
2019-03-15T02:56:36.104Z,8.63
2019-03-15T02:57:38.132Z,8.61
2019-03-15T02:58:36.398Z,8.58
2019-03-15T02:59:36.167Z,8.56
2019-03-15T03:00:36.702Z,8.64
2019-03-15T03:01:36.470Z,8.66
2019-03-15T03:02:36.217Z,8.63
2019-03-15T03:03:36.505Z,8.52
2019-03-15T03:04:36.508Z,8.61
2019-03-15T03:05:36.822Z,8.63
2019-03-15T03:06:36.580Z,8.63
2019-03-15T03:07:36.347Z,8.71
2019-03-15T03:08:36.835Z,8.63
2019-03-15T03:09:36.834Z,8.61
2019-03-15T03:10:36.626Z,8.63
2019-03-15T03:11:36.651Z,8.58
2019-03-15T03:12:36.412Z,8.69
2019-03-15T03:13:37.325Z,8.6
2019-03-15T03:14:36.947Z,8.52
2019-03-15T03:15:36.742Z,8.66
2019-03-15T03:16:36.722Z,8.6
2019-03-15T03:17:37.020Z,8.63
2019-03-15T03:18:37.157Z,8.71
2019-03-15T03:19:36.772Z,8.69
2019-03-15T03:20:36.968Z,8.58
2019-03-15T03:21:36.555Z,8.52
2019-03-15T03:22:38.770Z,8.61
2019-03-15T03:23:36.582Z,8.52
2019-03-15T03:24:37.124Z,8.64
2019-03-15T03:25:37.221Z,8.64
2019-03-15T03:26:36.633Z,8.56
2019-03-15T03:27:38.879Z,8.55
2019-03-15T03:28:36.676Z,8.63
2019-03-15T03:29:37.320Z,8.61
2019-03-15T03:30:37.232Z,8.67
2019-03-15T03:31:37.003Z,8.51
2019-03-15T03:32:37.022Z,8.6
2019-03-15T03:33:37.024Z,8.56
2019-03-15T03:34:37.395Z,8.56
2019-03-15T03:35:37.084Z,8.53
2019-03-15T03:36:36.816Z,8.67
2019-03-15T03:37:37.356Z,8.63
2019-03-15T03:38:36.850Z,8.6
2019-03-15T03:39:38.503Z,8.64
2019-03-15T03:40:36.878Z,8.52
2019-03-15T03:41:37.168Z,8.52
2019-03-15T03:42:37.456Z,8.53
2019-03-15T03:43:36.931Z,8.58
2019-03-15T03:44:37.556Z,8.6
2019-03-15T03:45:37.227Z,8.6
2019-03-15T03:46:37.242Z,8.55
2019-03-15T03:47:37.900Z,8.53
2019-03-15T03:48:37.682Z,8.66
2019-03-15T03:49:37.033Z,8.58
2019-03-15T03:50:37.316Z,8.53
2019-03-15T03:51:37.065Z,8.56
2019-03-15T03:52:37.088Z,8.55
2019-03-15T03:53:37.374Z,8.58
2019-03-15T03:54:37.120Z,8.69
2019-03-15T03:55:37.406Z,8.55
2019-03-15T03:56:37.684Z,8.56
2019-03-15T03:57:38.518Z,8.63
2019-03-15T03:58:37.457Z,8.67
2019-03-15T03:59:37.470Z,8.66
2019-03-15T04:00:37.227Z,8.55
2019-03-15T04:01:37.245Z,8.63
2019-03-15T04:02:37.806Z,8.52
2019-03-15T04:03:37.283Z,8.56
2019-03-15T04:04:37.298Z,8.55
2019-03-15T04:05:37.581Z,8.6
2019-03-15T04:06:37.594Z,8.53
2019-03-15T04:07:37.610Z,8.64
2019-03-15T04:08:37.377Z,8.52
2019-03-15T04:09:37.914Z,8.66
2019-03-15T04:10:37.403Z,8.63
2019-03-15T04:11:37.420Z,8.55
2019-03-15T04:12:37.441Z,8.61
2019-03-15T04:13:37.718Z,8.63
2019-03-15T04:14:37.875Z,8.49
2019-03-15T04:15:37.749Z,8.55
2019-03-15T04:16:37.505Z,8.6
2019-03-15T04:17:37.786Z,8.55
2019-03-15T04:18:37.804Z,8.58
2019-03-15T04:19:37.572Z,8.51
2019-03-15T04:20:37.844Z,8.61
2019-03-15T04:21:37.872Z,8.61
2019-03-15T04:22:38.134Z,8.58
2019-03-15T04:23:40.806Z,8.6
2019-03-15T04:24:37.654Z,8.61
2019-03-15T04:25:40.493Z,8.56
2019-03-15T04:26:37.949Z,8.49
2019-03-15T04:27:37.701Z,8.52
2019-03-15T04:28:37.983Z,8.6
2019-03-15T04:29:38.000Z,8.56
2019-03-15T04:30:38.280Z,8.58
2019-03-15T04:31:38.040Z,8.46
2019-03-15T04:32:39.187Z,8.49
2019-03-15T04:33:38.075Z,8.58
2019-03-15T04:34:37.825Z,8.46
2019-03-15T04:35:38.190Z,8.44
2019-03-15T04:36:37.868Z,8.53
2019-03-15T04:37:38.479Z,8.46
2019-03-15T04:38:38.180Z,8.46
2019-03-15T04:39:37.914Z,8.55
2019-03-15T04:40:37.938Z,8.46
2019-03-15T04:41:38.213Z,8.48
2019-03-15T04:42:38.544Z,8.58
2019-03-15T04:43:37.982Z,8.46
2019-03-15T04:44:38.269Z,8.51
2019-03-15T04:45:38.021Z,8.53
2019-03-15T04:46:38.038Z,8.48
2019-03-15T04:47:38.321Z,8.49
2019-03-15T04:48:38.074Z,8.44
2019-03-15T04:49:38.616Z,8.45
2019-03-15T04:50:38.108Z,8.44
2019-03-15T04:51:38.390Z,8.49
2019-03-15T04:52:38.409Z,8.51
2019-03-15T04:53:38.223Z,8.46
2019-03-15T04:54:38.181Z,8.51
2019-03-15T04:55:38.198Z,8.46
2019-03-15T04:56:38.485Z,8.45
2019-03-15T04:57:38.232Z,8.51
2019-03-15T04:58:38.335Z,8.48
2019-03-15T04:59:38.269Z,8.52
2019-03-15T05:00:38.547Z,8.52
2019-03-15T05:01:38.833Z,8.48
2019-03-15T05:02:38.316Z,8.55
2019-03-15T05:03:38.383Z,8.52
2019-03-15T05:04:38.360Z,8.48
2019-03-15T05:05:38.578Z,8.48
2019-03-15T05:06:38.395Z,8.48
2019-03-15T05:07:38.447Z,8.44
2019-03-15T05:08:38.952Z,8.48
2019-03-15T05:09:38.706Z,8.45
2019-03-15T05:10:38.722Z,8.42
2019-03-15T05:11:38.740Z,8.48
2019-03-15T05:12:38.494Z,8.53
2019-03-15T05:13:38.784Z,8.45
2019-03-15T05:14:39.057Z,8.45
2019-03-15T05:15:38.813Z,8.51
2019-03-15T05:16:38.832Z,8.49
2019-03-15T05:17:38.592Z,8.44
2019-03-15T05:18:39.129Z,8.41
2019-03-15T05:19:38.620Z,8.42
2019-03-15T05:20:38.637Z,8.46
2019-03-15T05:21:38.912Z,8.49
2019-03-15T05:22:38.944Z,8.45
2019-03-15T05:23:38.980Z,8.52
2019-03-15T05:24:39.231Z,8.48
2019-03-15T05:25:38.989Z,8.45
2019-03-15T05:26:39.002Z,8.51
2019-03-15T05:27:39.285Z,8.49
2019-03-15T05:28:38.786Z,8.48
2019-03-15T05:29:39.065Z,8.51
2019-03-15T05:30:39.347Z,8.48
2019-03-15T05:31:39.096Z,8.49
2019-03-15T05:32:39.121Z,8.48
2019-03-15T05:33:39.130Z,8.42
2019-03-15T05:34:38.881Z,8.45
2019-03-15T05:35:38.933Z,8.46
2019-03-15T05:36:39.060Z,8.48
2019-03-15T05:37:39.267Z,8.48
2019-03-15T05:38:40.141Z,8.46
2019-03-15T05:39:39.232Z,8.53
2019-03-15T05:40:39.342Z,8.51
2019-03-15T05:41:39.009Z,8.49
2019-03-15T05:42:39.023Z,8.49
2019-03-15T05:43:39.562Z,8.49
2019-03-15T05:44:39.581Z,8.52
2019-03-15T05:45:39.442Z,8.48
2019-03-15T05:46:39.625Z,8.44
2019-03-15T05:47:39.110Z,8.45
2019-03-15T05:48:39.130Z,8.52
2019-03-15T05:49:39.678Z,8.51
2019-03-15T05:50:40.735Z,8.49
2019-03-15T05:51:39.448Z,8.49
2019-03-15T05:52:39.204Z,8.53
2019-03-15T05:53:39.519Z,8.55
2019-03-15T05:54:39.245Z,8.53
2019-03-15T05:55:39.777Z,8.53
2019-03-15T05:56:39.533Z,8.49
2019-03-15T05:57:39.290Z,8.53
2019-03-15T05:58:39.832Z,8.49
2019-03-15T05:59:39.326Z,8.45
2019-03-15T06:00:39.349Z,8.45
2019-03-15T06:01:39.622Z,8.48
2019-03-15T06:02:39.901Z,8.46
2019-03-15T06:03:53.001Z,8.44
2019-03-15T06:04:39.674Z,8.42
2019-03-15T06:05:39.430Z,8.52
2019-03-15T06:06:39.713Z,8.55
2019-03-15T06:07:39.731Z,8.46
2019-03-15T06:08:39.747Z,8.44
2019-03-15T06:09:39.498Z,8.45
2019-03-15T06:10:39.518Z,8.49
2019-03-15T06:11:39.802Z,8.46
2019-03-15T06:12:39.556Z,8.45
2019-03-15T06:13:39.570Z,8.56
2019-03-15T06:14:39.861Z,8.46
2019-03-15T06:15:39.872Z,8.46
2019-03-15T06:16:40.146Z,8.48
2019-03-15T06:17:39.903Z,8.63
2019-03-15T06:18:39.715Z,8.48
2019-03-15T06:19:39.689Z,8.49
2019-03-15T06:20:39.696Z,8.56
2019-03-15T06:21:40.236Z,8.46
2019-03-15T06:22:39.816Z,8.56
2019-03-15T06:23:40.277Z,8.61
2019-03-15T06:24:39.764Z,8.52
2019-03-15T06:25:40.057Z,8.48
2019-03-15T06:26:40.075Z,8.51
2019-03-15T06:27:40.084Z,8.61
2019-03-15T06:28:39.855Z,8.56
2019-03-15T06:29:40.384Z,8.51
2019-03-15T06:30:40.136Z,8.49
2019-03-15T06:31:40.411Z,8.61
2019-03-15T06:32:40.430Z,8.51
2019-03-15T06:33:40.191Z,8.56
2019-03-15T06:34:42.088Z,8.6
2019-03-15T06:35:39.970Z,8.63
2019-03-15T06:36:40.267Z,8.52
2019-03-15T06:37:39.994Z,8.55
2019-03-15T06:38:40.295Z,8.61
2019-03-15T06:39:41.774Z,8.6
2019-03-15T06:40:40.310Z,8.51
2019-03-15T06:41:40.332Z,8.64
2019-03-15T06:42:40.082Z,8.56
2019-03-15T06:43:40.628Z,8.67
2019-03-15T06:44:42.268Z,8.56
2019-03-15T06:45:44.213Z,8.49
2019-03-15T06:46:40.419Z,8.6
2019-03-15T06:47:40.698Z,8.69
2019-03-15T06:48:40.743Z,8.64
2019-03-15T06:49:40.740Z,8.64
2019-03-15T06:50:40.488Z,8.52
2019-03-15T06:51:40.515Z,8.61
2019-03-15T06:52:40.560Z,8.67
2019-03-15T06:53:40.277Z,8.56
2019-03-15T06:54:40.555Z,8.66
2019-03-15T06:55:40.576Z,8.61
2019-03-15T06:56:40.687Z,8.58
2019-03-15T06:57:40.347Z,8.64
2019-03-15T06:58:40.627Z,8.52
2019-03-15T06:59:41.200Z,8.63
2019-03-15T07:00:40.664Z,8.6
2019-03-15T07:01:40.941Z,8.6
2019-03-15T07:02:40.435Z,8.63
2019-03-15T07:03:40.981Z,8.63
2019-03-15T07:04:40.735Z,8.66
2019-03-15T07:05:41.011Z,8.73
2019-03-15T07:06:40.768Z,8.63
2019-03-15T07:07:41.048Z,8.66
2019-03-15T07:08:40.879Z,8.66
2019-03-15T07:09:41.061Z,8.69
2019-03-15T07:10:43.973Z,8.67
2019-03-15T07:11:41.123Z,8.69
2019-03-15T07:12:42.555Z,8.69
2019-03-15T07:13:41.163Z,8.7
2019-03-15T07:14:40.668Z,8.71
2019-03-15T07:15:44.123Z,8.67
2019-03-15T07:16:42.660Z,8.7
2019-03-15T07:17:41.654Z,8.73
2019-03-15T07:18:40.720Z,8.73
2019-03-15T07:19:41.264Z,8.69
2019-03-15T07:20:41.278Z,8.71
2019-03-15T07:21:41.903Z,8.7
2019-03-15T07:22:40.791Z,8.74
2019-03-15T07:23:40.809Z,8.69
2019-03-15T07:24:43.522Z,8.76
2019-03-15T07:25:41.113Z,8.79
2019-03-15T07:26:43.590Z,8.78
2019-03-15T07:27:44.674Z,8.85
2019-03-15T07:28:40.899Z,8.79
2019-03-15T07:29:41.186Z,8.78
2019-03-15T07:30:41.201Z,8.76
2019-03-15T07:31:41.216Z,8.73
2019-03-15T07:32:41.492Z,8.74
2019-03-15T07:33:40.985Z,8.78
2019-03-15T07:34:41.601Z,8.74
2019-03-15T07:35:41.021Z,8.76
2019-03-15T07:36:42.090Z,8.82
2019-03-15T07:37:41.320Z,8.78
2019-03-15T07:38:41.608Z,8.82
2019-03-15T07:39:41.092Z,8.81
2019-03-15T07:40:41.633Z,8.81
2019-03-15T07:41:41.625Z,8.78
2019-03-15T07:42:41.669Z,8.79
2019-03-15T07:43:41.428Z,8.84
2019-03-15T07:44:41.181Z,8.79
2019-03-15T07:45:41.277Z,8.78
2019-03-15T07:46:41.482Z,8.81
2019-03-15T07:47:41.765Z,8.74
2019-03-15T07:48:41.256Z,8.87
2019-03-15T07:49:41.535Z,8.81
2019-03-15T07:50:41.287Z,8.76
2019-03-15T07:51:41.840Z,8.82
2019-03-15T07:52:41.320Z,8.78
2019-03-15T07:53:41.864Z,8.84
2019-03-15T07:54:42.683Z,8.84
2019-03-15T07:55:41.911Z,8.78
2019-03-15T07:56:41.657Z,8.76
2019-03-15T07:57:41.678Z,8.85
2019-03-15T07:58:41.441Z,8.85
2019-03-15T07:59:41.727Z,8.76
2019-03-15T08:00:41.736Z,8.81
2019-03-15T08:01:41.748Z,8.84
2019-03-15T08:02:41.791Z,8.73
2019-03-15T08:03:41.781Z,8.85
2019-03-15T08:04:41.813Z,8.85
2019-03-15T08:05:42.882Z,8.76
2019-03-15T08:06:41.575Z,8.76
2019-03-15T08:07:49.358Z,8.84
2019-03-15T08:08:42.315Z,8.79
2019-03-15T08:09:41.892Z,8.76
2019-03-15T08:10:41.929Z,8.84
2019-03-15T08:11:41.665Z,8.7
2019-03-15T08:12:43.414Z,8.87
2019-03-15T08:13:42.021Z,8.92
2019-03-15T08:14:42.245Z,8.87
2019-03-15T08:15:41.997Z,8.81
2019-03-15T08:16:42.022Z,8.78
2019-03-15T08:17:42.106Z,8.78
2019-03-15T08:18:41.787Z,8.71
2019-03-15T08:19:42.065Z,8.81
2019-03-15T08:20:42.097Z,8.84
2019-03-15T08:21:42.114Z,8.79
2019-03-15T08:22:42.401Z,8.71
2019-03-15T08:23:42.139Z,8.76
2019-03-15T08:24:55.498Z,8.85
2019-03-15T08:25:42.172Z,8.85
2019-03-15T08:26:42.266Z,8.88
2019-03-15T08:27:42.056Z,8.91
2019-03-15T08:28:42.491Z,8.91
2019-03-15T08:29:42.511Z,8.89
2019-03-15T08:30:42.334Z,8.99
2019-03-15T08:31:42.290Z,8.92
2019-03-15T08:32:46.051Z,8.88
2019-03-15T08:33:42.316Z,8.92
2019-03-15T08:34:42.338Z,8.94
2019-03-15T08:35:42.367Z,8.95
2019-03-15T08:36:42.372Z,9.02
2019-03-15T08:37:42.393Z,8.95
2019-03-15T08:38:52.227Z,8.99
2019-03-15T08:39:42.287Z,8.97
2019-03-15T08:40:42.187Z,9.03
2019-03-15T08:41:42.465Z,9.02
2019-03-15T08:42:42.227Z,8.97
2019-03-15T08:43:45.741Z,9.04
2019-03-15T08:44:42.533Z,8.97
2019-03-15T08:45:42.533Z,8.92
2019-03-15T08:46:42.283Z,8.99
2019-03-15T08:47:42.305Z,9.02
2019-03-15T08:48:42.322Z,9
2019-03-15T08:49:42.348Z,8.95
2019-03-15T08:50:42.627Z,9.02
2019-03-15T08:51:42.908Z,8.91
2019-03-15T08:52:44.707Z,9.06
2019-03-15T08:53:42.688Z,9.03
2019-03-15T08:54:42.957Z,9.03
2019-03-15T08:55:44.364Z,8.95
2019-03-15T08:56:42.747Z,8.97
2019-03-15T08:57:43.015Z,9.03
2019-03-15T08:58:42.762Z,9
2019-03-15T08:59:57.571Z,8.99
2019-03-15T09:00:42.538Z,8.99
2019-03-15T09:01:43.080Z,8.97
2019-03-15T09:02:42.580Z,9.04
2019-03-15T09:03:42.601Z,9.04
2019-03-15T09:04:43.138Z,9.04
2019-03-15T09:05:42.888Z,9.08
2019-03-15T09:06:45.439Z,9.14
2019-03-15T09:07:43.300Z,9.04
2019-03-15T09:08:43.214Z,9.03
2019-03-15T09:09:42.962Z,9
2019-03-15T09:10:43.009Z,9.16
2019-03-15T09:11:43.269Z,9.1
2019-03-15T09:12:42.849Z,9.1
2019-03-15T09:13:42.778Z,9.22
2019-03-15T09:14:43.057Z,9.19
2019-03-15T09:15:43.486Z,9.22
2019-03-15T09:16:43.355Z,9.18
2019-03-15T09:17:42.844Z,9.21
2019-03-15T09:18:43.128Z,9.16
2019-03-15T09:19:43.405Z,9.18
2019-03-15T09:20:42.902Z,9.18
2019-03-15T09:21:43.177Z,9.19
2019-03-15T09:22:43.204Z,9.29
2019-03-15T09:23:43.221Z,9.25
2019-03-15T09:24:43.004Z,9.29
2019-03-15T09:25:43.248Z,9.19
2019-03-15T09:26:43.539Z,9.28
2019-03-15T09:27:45.348Z,9.23
2019-03-15T09:28:43.311Z,9.22
2019-03-15T09:29:43.329Z,9.29
2019-03-15T09:30:43.081Z,9.28
2019-03-15T09:32:04.743Z,9.25
2019-03-15T09:32:43.638Z,9.26
2019-03-15T09:33:43.509Z,9.31
2019-03-15T09:34:43.209Z,9.29
2019-03-15T09:35:43.689Z,9.32
2019-03-15T09:36:54.725Z,9.32
2019-03-15T09:37:46.932Z,9.36
2019-03-15T09:38:43.752Z,9.32
2019-03-15T09:39:43.241Z,9.29
2019-03-15T09:40:43.262Z,9.31
2019-03-15T09:41:44.845Z,9.32
2019-03-15T09:42:43.566Z,9.32
2019-03-15T09:43:45.295Z,9.29
2019-03-15T09:44:43.610Z,9.37
2019-03-15T09:45:43.612Z,9.34
2019-03-15T09:46:43.364Z,9.29
2019-03-15T09:47:43.648Z,9.36
2019-03-15T09:48:46.228Z,9.34
2019-03-15T09:49:43.418Z,9.34
2019-03-15T09:50:55.435Z,9.36
2019-03-15T09:51:43.715Z,9.44
2019-03-15T09:52:43.471Z,9.4
2019-03-15T09:53:43.755Z,9.41
2019-03-15T09:54:43.772Z,9.37
2019-03-15T09:55:43.791Z,9.37
2019-03-15T09:56:43.812Z,9.46
2019-03-15T09:57:43.848Z,9.4
2019-03-15T09:58:44.122Z,9.51
2019-03-15T09:59:43.908Z,9.4
2019-03-15T10:00:43.623Z,9.41
2019-03-15T10:01:43.640Z,9.47
2019-03-15T10:02:43.918Z,9.41
2019-03-15T10:03:43.676Z,9.4
2019-03-15T10:04:43.690Z,9.47
2019-03-15T10:05:43.973Z,9.46
2019-03-15T10:06:43.994Z,9.41
2019-03-15T10:07:47.986Z,9.47
2019-03-15T10:08:44.285Z,9.39
2019-03-15T10:09:50.579Z,9.47
2019-03-15T10:10:44.065Z,9.44
2019-03-15T10:11:44.079Z,9.37
2019-03-15T10:12:43.836Z,9.43
2019-03-15T10:13:44.375Z,9.48
2019-03-15T10:14:43.881Z,9.4
2019-03-15T10:15:44.692Z,9.43
2019-03-15T10:16:44.172Z,9.46
2019-03-15T10:17:44.189Z,9.43
2019-03-15T10:18:43.941Z,9.48
2019-03-15T10:19:43.963Z,9.46
2019-03-15T10:20:47.630Z,9.44
2019-03-15T10:21:44.259Z,9.46
2019-03-15T10:22:44.023Z,9.47
2019-03-15T10:23:44.323Z,9.44
2019-03-15T10:24:44.319Z,9.41
2019-03-15T10:25:53.770Z,9.47
2019-03-15T10:26:44.354Z,9.43
2019-03-15T10:27:44.109Z,9.47
2019-03-15T10:28:44.385Z,9.5
2019-03-15T10:29:44.147Z,9.5
2019-03-15T10:30:44.425Z,9.43
2019-03-15T10:31:44.175Z,9.5
2019-03-15T10:32:44.723Z,9.37
2019-03-15T10:33:54.796Z,9.43
2019-03-15T10:34:44.501Z,9.37
2019-03-15T10:35:44.790Z,9.39
2019-03-15T10:36:44.280Z,9.46
2019-03-15T10:37:44.812Z,9.43
2019-03-15T10:38:44.572Z,9.4
2019-03-15T10:39:44.582Z,9.32
2019-03-15T10:40:44.343Z,9.47
2019-03-15T10:41:44.360Z,9.43
2019-03-15T10:42:44.377Z,9.37
2019-03-15T10:43:44.938Z,9.37
2019-03-15T10:44:44.413Z,9.5
2019-03-15T10:45:44.773Z,9.46
2019-03-15T10:46:45.262Z,9.43
2019-03-15T10:47:47.139Z,9.43
2019-03-15T10:48:44.749Z,9.41
2019-03-15T10:49:44.764Z,9.36
2019-03-15T10:50:44.520Z,9.37
2019-03-15T10:51:44.813Z,9.46
2019-03-15T10:52:44.570Z,9.4
2019-03-15T10:53:44.575Z,9.36
2019-03-15T10:54:44.679Z,9.44
2019-03-15T10:55:45.133Z,9.37
2019-03-15T10:56:44.922Z,9.44
2019-03-15T10:57:45.170Z,9.37
2019-03-15T10:58:44.675Z,9.43
2019-03-15T10:59:44.948Z,9.36
2019-03-15T11:00:45.227Z,9.34
2019-03-15T11:01:44.750Z,9.41
2019-03-15T11:02:45.027Z,9.41
2019-03-15T11:03:45.019Z,9.37
2019-03-15T11:04:45.038Z,9.36
2019-03-15T11:05:45.057Z,9.36
2019-03-15T11:06:45.072Z,9.37
2019-03-15T11:07:44.830Z,9.41
2019-03-15T11:08:45.124Z,9.48
2019-03-15T11:09:44.865Z,9.41
2019-03-15T11:10:45.155Z,9.46
2019-03-15T11:11:45.162Z,9.39
2019-03-15T11:12:45.207Z,9.44
2019-03-15T11:13:45.198Z,9.41
2019-03-15T11:14:45.222Z,9.46
2019-03-15T11:15:44.977Z,9.4
2019-03-15T11:16:45.257Z,9.37
2019-03-15T11:17:45.013Z,9.54
2019-03-15T11:18:45.289Z,9.5
2019-03-15T11:19:45.573Z,9.48
2019-03-15T11:20:45.082Z,9.47
2019-03-15T11:21:45.344Z,9.46
2019-03-15T11:22:45.379Z,9.44
2019-03-15T11:23:45.116Z,9.41
2019-03-15T11:24:48.337Z,9.47
2019-03-15T11:25:45.154Z,9.54
2019-03-15T11:26:45.174Z,9.47
2019-03-15T11:27:45.188Z,9.44
2019-03-15T11:28:45.481Z,9.47
2019-03-15T11:29:45.489Z,9.44
2019-03-15T11:30:45.516Z,9.5
2019-03-15T11:31:45.525Z,9.48
2019-03-15T11:32:45.615Z,9.46
2019-03-15T11:33:47.345Z,9.5
2019-03-15T11:34:45.579Z,9.47
2019-03-15T11:35:45.862Z,9.51
2019-03-15T11:36:57.660Z,9.5
2019-03-15T11:37:45.907Z,9.51
2019-03-15T11:38:45.654Z,9.48
2019-03-15T11:39:45.407Z,9.56
2019-03-15T11:40:45.425Z,9.58
2019-03-15T11:41:45.448Z,9.51
2019-03-15T11:42:45.804Z,9.56
2019-03-15T11:43:45.485Z,9.51
2019-03-15T11:44:45.763Z,9.61
2019-03-15T11:45:45.781Z,9.51
2019-03-15T11:46:46.289Z,9.56
2019-03-15T11:48:08.869Z,9.56
2019-03-15T11:48:45.572Z,9.56
2019-03-15T11:49:45.593Z,9.54
2019-03-15T11:50:45.871Z,9.54
2019-03-15T11:51:47.288Z,9.56
2019-03-15T11:52:45.918Z,9.54
2019-03-15T11:53:45.669Z,9.61
2019-03-15T11:54:45.695Z,9.56
2019-03-15T11:55:45.698Z,9.54
2019-03-15T11:56:45.717Z,9.58
2019-03-15T11:57:46.258Z,9.56
2019-03-15T11:58:46.279Z,9.58
2019-03-15T11:59:46.036Z,9.61
2019-03-15T12:00:46.057Z,9.65
2019-03-15T12:01:46.066Z,9.54
2019-03-15T12:02:46.098Z,9.65
2019-03-15T12:03:57.318Z,9.56
2019-03-15T12:04:46.121Z,9.59
2019-03-15T12:05:45.875Z,9.55
2019-03-15T12:06:46.423Z,9.64
2019-03-15T12:07:46.558Z,9.73
2019-03-15T12:08:45.939Z,9.74
2019-03-15T12:09:45.952Z,9.66
2019-03-15T12:10:45.971Z,9.69
2019-03-15T12:11:45.985Z,9.73
2019-03-15T12:12:46.300Z,9.74
2019-03-15T12:13:46.021Z,9.72
2019-03-15T12:14:46.306Z,9.76
2019-03-15T12:15:46.588Z,9.74
2019-03-15T12:16:46.607Z,9.77
2019-03-15T12:17:46.370Z,9.82
2019-03-15T12:18:46.646Z,9.91
2019-03-15T12:19:46.399Z,9.86
2019-03-15T12:20:49.069Z,9.86
2019-03-15T12:21:46.701Z,9.87
2019-03-15T12:22:46.460Z,9.95
2019-03-15T12:23:46.469Z,9.98
2019-03-15T12:24:46.488Z,9.97
2019-03-15T12:25:46.765Z,9.94
2019-03-15T12:26:46.522Z,9.95
2019-03-15T12:27:46.814Z,9.98
2019-03-15T12:28:46.561Z,10.01
2019-03-15T12:29:46.581Z,9.98
2019-03-15T12:30:47.888Z,9.91
2019-03-15T12:31:46.352Z,9.86
2019-03-15T12:32:46.640Z,9.91
2019-03-15T12:33:46.653Z,9.95
2019-03-15T12:34:46.460Z,9.92
2019-03-15T12:35:46.691Z,9.95
2019-03-15T12:36:46.708Z,10.01
2019-03-15T12:37:46.730Z,10.02
2019-03-15T12:38:46.481Z,10.04
2019-03-15T12:39:47.075Z,10.04
2019-03-15T12:40:47.068Z,10.16
2019-03-15T12:41:46.537Z,10.19
2019-03-15T12:42:46.557Z,10.16
2019-03-15T12:43:47.186Z,10.15
2019-03-15T12:44:46.855Z,10.26
2019-03-15T12:45:47.137Z,10.28
2019-03-15T12:46:46.632Z,10.28
2019-03-15T12:47:46.927Z,10.25
2019-03-15T12:48:47.190Z,10.28
2019-03-15T12:49:46.738Z,10.38
2019-03-15T12:50:46.971Z,10.37
2019-03-15T12:51:46.731Z,10.38
2019-03-15T12:52:52.551Z,10.38
2019-03-15T12:53:46.762Z,10.44
2019-03-15T12:54:47.105Z,10.38
2019-03-15T12:55:47.084Z,10.44
2019-03-15T12:56:58.366Z,10.38
2019-03-15T12:57:49.102Z,10.34
2019-03-15T12:58:47.131Z,10.41
2019-03-15T12:59:47.135Z,10.38
2019-03-15T13:00:47.158Z,10.41
2019-03-15T13:01:47.456Z,10.38
2019-03-15T13:02:47.195Z,10.42
2019-03-15T13:03:47.209Z,10.38
2019-03-15T13:04:47.006Z,10.4
2019-03-15T13:05:46.986Z,10.38
2019-03-15T13:06:47.268Z,10.46
2019-03-15T13:07:47.305Z,10.42
2019-03-15T13:08:49.618Z,10.46
2019-03-15T13:09:47.586Z,10.37
2019-03-15T13:10:47.365Z,10.51
2019-03-15T13:11:47.105Z,10.49
2019-03-15T13:12:47.383Z,10.42
2019-03-15T13:13:50.681Z,10.38
2019-03-15T13:14:47.159Z,10.4
2019-03-15T13:15:47.438Z,10.48
2019-03-15T13:16:47.465Z,10.51
2019-03-15T13:17:47.738Z,10.44
2019-03-15T13:18:47.232Z,10.53
2019-03-15T13:19:59.974Z,10.44